Buoy 51940

sailwx.info

Track history (hours):
 
Tides and Currents Weather Stations Pressure Air Temp Water Temp Dewpoint Dewpoint Depression Visibility Wind Speed Wind Dir Waves Ship Positions

Drifting buoy 51940

Last reported at 2015-Feb-28 04:06 UTC. Time now 2015-Feb-28 06:54 UTC.
Position N 32°42' W 159°25'.

Water temperature 15.2 ° C

Date/timePositionNaut miles runAvg speedWind from/ knotsBaromVisibWave heightAir tempDewpointWater temp
2015-Feb-28 04:06N 32°42' W 159°25'3 0.9 15.2
2015-Feb-28 01:03N 32°45' W 159°25'0 3.0 15.2
2015-Feb-28 00:58N 32°45' W 159°26'2 1.5 15.2
2015-Feb-27 23:18N 32°47' W 159°27'0 0.0 15.2
2015-Feb-27 21:04N 32°47' W 159°27'1 1.0 15.1
2015-Feb-27 20:16N 32°47' W 159°26'0 0.1 15.1
2015-Feb-27 16:47N 32°47' W 159°26'1 5.6 15.1
2015-Feb-27 16:38N 32°46' W 159°25'0 0.1 15.1
2015-Feb-27 15:07N 32°46' W 159°25'1 9.4 15.1
2015-Feb-27 15:01N 32°46' W 159°24'0 0.0 15.1
2015-Feb-27 13:41N 32°46' W 159°24'1 7.6 15.1
2015-Feb-27 13:33N 32°46' W 159°23'0 0.0 15.1
2015-Feb-27 11:58N 32°46' W 159°23'2 0.7 15.1
2015-Feb-27 08:42N 32°47' W 159°21'0 1.5 15.1
2015-Feb-27 08:38N 32°47' W 159°21'0 0.5 15.1
2015-Feb-27 07:52N 32°47' W 159°20'1 0.8 15.1
2015-Feb-27 07:01N 32°48' W 159°19'1 9.3 15.1
2015-Feb-27 06:55N 32°48' W 159°18'0 0.0 15.1
2015-Feb-27 05:36N 32°48' W 159°18'1 0.6 15.2
2015-Feb-27 04:24N 32°48' W 159°18'0 2.7 15.2
2015-Feb-27 04:17N 32°49' W 159°18'1 1.7 15.2
2015-Feb-27 03:57N 32°49' W 159°17'1 0.4 15.2
2015-Feb-27 01:12N 32°48' W 159°16'2 0.5 15.2
2015-Feb-26 20:36N 32°48' W 159°13'2 0.5 15.0
2015-Feb-26 17:18N 32°47' W 159°12'0 0.2 15.0
2015-Feb-26 16:58N 32°47' W 159°12'1 6.1 15.0
2015-Feb-26 16:51N 32°47' W 159°11'0 0.0 15.0
2015-Feb-26 15:40N 32°47' W 159°11'0 0.5 15.0
2015-Feb-26 15:19N 32°47' W 159°11'1 7.0 15.0
2015-Feb-26 15:10N 32°47' W 159°10'1 0.6 15.0
2015-Feb-26 13:45N 32°47' W 159°09'0 0.0 15.0
2015-Feb-26 12:10N 32°47' W 159°09'219.6 15.0
2015-Feb-26 12:05N 32°46' W 159°07'0 0.1 15.0
2015-Feb-26 08:58N 32°46' W 159°07'0 0.3 15.1
2015-Feb-26 08:13N 32°47' W 159°07'0 0.3 15.1
2015-Feb-26 07:18N 32°47' W 159°06'156.4 15.1
2015-Feb-26 07:17N 32°47' W 159°05'1 0.4 15.1
2015-Feb-26 04:51N 32°48' W 159°05'1 2.6 15.1
2015-Feb-26 04:28N 32°47' W 159°06'023.5 15.1
2015-Feb-26 04:27N 32°47' W 159°06'0 0.3 15.1
2015-Feb-26 03:09N 32°47' W 159°06'0 1.4 15.1
2015-Feb-26 02:49N 32°47' W 159°06'1 0.7 15.1
2015-Feb-26 01:22N 32°48' W 159°05'1 3.2 15.1
2015-Feb-26 01:06N 32°47' W 159°05'0 0.0
2015-Feb-25 23:43N 32°47' W 159°05'1 0.6 15.0
2015-Feb-25 21:44N 32°46' W 159°04'0 0.0 15.0
2015-Feb-25 20:57N 32°46' W 159°04'0 2.0 15.0
2015-Feb-25 20:49N 32°46' W 159°04'0 0.0 15.0
2015-Feb-25 20:03N 32°46' W 159°04'1 0.3 15.0
2015-Feb-25 17:46N 32°45' W 159°05'0 0.0 15.0
2015-Feb-25 17:34N 32°45' W 159°05'0 0.0 15.0
2015-Feb-25 16:12N 32°45' W 159°05'0 0.5 15.1
2015-Feb-25 15:57N 32°45' W 159°04'0 1.4 15.1
2015-Feb-25 15:49N 32°45' W 159°04'0 0.0 15.1
2015-Feb-25 15:29N 32°45' W 159°04'1 4.9 15.1
2015-Feb-25 15:22N 32°44' W 159°05'0 0.0 15.1
2015-Feb-25 14:03N 32°44' W 159°05'1 0.4 15.1
2015-Feb-25 12:19N 32°44' W 159°05'120.8 15.1
2015-Feb-25 12:16N 32°43' W 159°04'0 0.0 15.1
2015-Feb-25 09:23N 32°43' W 159°04'0 3.3 15.0
2015-Feb-25 09:14N 32°42' W 159°04'1 0.4 15.0
2015-Feb-25 07:38N 32°42' W 159°05'0 0.1 15.0
2015-Feb-25 05:13N 32°42' W 159°04'0 0.0 15.0
2015-Feb-25 04:59N 32°42' W 159°04'1 4.5 15.0
2015-Feb-25 04:40N 32°41' W 159°06'0 0.0 15.0
2015-Feb-25 03:34N 32°41' W 159°06'0 0.0 15.0
2015-Feb-25 03:01N 32°41' W 159°06'0 0.0 15.0
2015-Feb-25 01:33N 32°41' W 159°06'0 0.0 14.9
2015-Feb-24 23:54N 32°41' W 159°06'1 0.5 15.0
2015-Feb-24 21:16N 32°40' W 159°05'0 0.0 15.0
2015-Feb-24 20:25N 32°40' W 159°05'1 0.4 14.9
2015-Feb-24 17:15N 32°40' W 159°04'0 0.2 14.9
2015-Feb-24 16:21N 32°40' W 159°04'0 0.6 14.9
2015-Feb-24 15:41N 32°40' W 159°03'0 2.0 14.8
2015-Feb-24 15:34N 32°40' W 159°04'0 0.0 14.8
2015-Feb-24 15:32N 32°40' W 159°04'0 0.3 14.8
2015-Feb-24 15:03N 32°40' W 159°04'0 0.2 14.8
2015-Feb-24 14:13N 32°40' W 159°04'0 2.8 14.8
2015-Feb-24 14:07N 32°40' W 159°04'0 0.0 14.8
2015-Feb-24 12:34N 32°40' W 159°04'3 0.6 14.6
2015-Feb-24 08:03N 32°37' W 159°04'0 1.0 14.5
2015-Feb-24 08:00N 32°37' W 159°04'0 0.5 14.5
2015-Feb-24 07:11N 32°37' W 159°04'0 0.0 14.5
2015-Feb-24 06:20N 32°37' W 159°04'1 1.1 14.6
2015-Feb-24 05:30N 32°36' W 159°04'1 0.4 14.6
2015-Feb-24 04:02N 32°35' W 159°04'0 2.6 14.6
2015-Feb-24 03:56N 32°35' W 159°03'0 3.7 14.6
2015-Feb-24 03:51N 32°35' W 159°04'0 0.3 14.6
2015-Feb-24 03:12N 32°35' W 159°04'0 0.3 14.7
2015-Feb-24 02:14N 32°35' W 159°04'0 0.0 14.6
2015-Feb-24 01:44N 32°35' W 159°04'0 1.5 14.7
2015-Feb-24 01:33N 32°35' W 159°04'1 4.6 14.7
2015-Feb-24 01:25N 32°34' W 159°05'0 0.0 14.7
2015-Feb-24 00:08N 32°34' W 159°05'1 6.5 14.7
2015-Feb-24 00:00N 32°34' W 159°06'2 0.7 14.8
2015-Feb-23 20:44N 32°32' W 159°07'0 0.0 14.8
2015-Feb-23 19:54N 32°32' W 159°07'0 0.0 14.8
2015-Feb-23 19:01N 32°32' W 159°07'0 0.0 14.7
2015-Feb-23 17:15N 32°32' W 159°07'0 0.6 14.7
2015-Feb-23 16:46N 32°32' W 159°07'2 1.7 14.7
2015-Feb-23 15:51N 32°31' W 159°09'0 0.0 14.7
2015-Feb-23 15:46N 32°31' W 159°09'0 0.0 14.7
2015-Feb-23 15:43N 32°31' W 159°09'1 6.0 14.7
2015-Feb-23 15:34N 32°32' W 159°08'1 1.6 14.7
2015-Feb-23 15:01N 32°31' W 159°09'0 0.0 14.7
2015-Feb-23 14:24N 32°31' W 159°09'115.1 14.6
2015-Feb-23 14:19N 32°30' W 159°09'0 0.0 14.6
2015-Feb-23 14:03N 32°30' W 159°09'0 0.0 14.6
2015-Feb-23 12:46N 32°30' W 159°09'319.3 14.6
2015-Feb-23 12:37N 32°27' W 159°10'0 0.0 14.6
2015-Feb-23 08:19N 32°27' W 159°10'1 0.9 14.6
2015-Feb-23 07:35N 32°26' W 159°10'1 1.0 14.6
2015-Feb-23 06:44N 32°26' W 159°10'0 0.6 14.6
2015-Feb-23 06:01N 32°25' W 159°10'2 1.0 14.6
2015-Feb-23 04:22N 32°24' W 159°09'0 0.3 14.7
2015-Feb-23 03:26N 32°24' W 159°09'0 0.0 14.7
2015-Feb-23 03:23N 32°24' W 159°09'1 1.3 14.7
2015-Feb-23 02:43N 32°23' W 159°10'1 0.7 14.7
2015-Feb-23 01:42N 32°22' W 159°10'0 0.0 14.7
2015-Feb-23 00:19N 32°22' W 159°10'0 2.4 14.7
2015-Feb-23 00:16N 32°22' W 159°10'2 1.0 14.7
2015-Feb-22 22:35N 32°21' W 159°11'0 0.1 14.7
2015-Feb-22 21:09N 32°21' W 159°11'1 0.7 14.7
2015-Feb-22 20:19N 32°21' W 159°12'2 0.7 14.7
2015-Feb-22 17:46N 32°19' W 159°13'2 0.9 14.7
2015-Feb-22 16:05N 32°18' W 159°12'0 2.3 14.7
2015-Feb-22 15:54N 32°17' W 159°12'0 0.0 14.7
2015-Feb-22 15:31N 32°17' W 159°12'0 0.4 14.7
2015-Feb-22 14:33N 32°17' W 159°12'0 1.4 14.7
2015-Feb-22 14:21N 32°17' W 159°12'1 8.7 14.7
2015-Feb-22 14:16N 32°16' W 159°12'0 0.0 14.7
2015-Feb-22 12:57N 32°16' W 159°12'213.1 14.7
2015-Feb-22 12:49N 32°14' W 159°12'0 0.0 14.7
2015-Feb-22 08:43N 32°14' W 159°12'1 1.3 14.7
2015-Feb-22 07:54N 32°13' W 159°12'0 0.0 14.7
2015-Feb-22 07:03N 32°13' W 159°12'1 0.6 14.8
2015-Feb-22 04:55N 32°12' W 159°13'0 0.0 14.8
2015-Feb-22 04:44N 32°12' W 159°13'0 0.0 14.8
2015-Feb-22 03:34N 32°12' W 159°13'0 1.1 14.8
2015-Feb-22 03:12N 32°12' W 159°13'0 1.2 14.8
2015-Feb-22 03:09N 32°12' W 159°13'0 0.1 14.8
2015-Feb-22 01:54N 32°12' W 159°13'2 1.3 14.8
2015-Feb-22 00:29N 32°10' W 159°14'1 0.2 14.8
2015-Feb-21 19:47N 32°10' W 159°15'1 0.3 14.6
2015-Feb-21 16:37N 32°09' W 159°16'0 0.5 14.6
2015-Feb-21 16:17N 32°09' W 159°16'1 0.3 14.6
2015-Feb-21 13:03N 32°10' W 159°17'1 7.6 14.6
2015-Feb-21 12:59N 32°10' W 159°18'0 0.1 14.6
2015-Feb-21 09:01N 32°10' W 159°18'1 0.4 14.7
2015-Feb-21 05:25N 32°11' W 159°20'1 0.4 14.7
2015-Feb-21 03:49N 32°11' W 159°20'1 0.6 14.7
2015-Feb-21 02:06N 32°11' W 159°21'1 0.4 14.7
2015-Feb-21 00:38N 32°11' W 159°22'1 0.4 14.7
2015-Feb-20 23:00N 32°11' W 159°23'216.2 14.7
2015-Feb-20 22:54N 32°12' W 159°25'0 0.0 14.7
2015-Feb-20 21:48N 32°12' W 159°25'0 0.0 14.6
2015-Feb-20 21:00N 32°12' W 159°25'1 1.2 14.6
2015-Feb-20 20:11N 32°12' W 159°26'2 0.5 14.6
2015-Feb-20 17:08N 32°11' W 159°28'0 0.3 14.6
2015-Feb-20 16:26N 32°11' W 159°28'1 5.1 14.6
2015-Feb-20 16:19N 32°11' W 159°29'3 0.9 14.6
2015-Feb-20 13:09N 32°13' W 159°31'0 0.0 14.6
2015-Feb-20 07:46N 32°13' W 159°31'1 1.7 14.7
2015-Feb-20 06:57N 32°14' W 159°32'2 0.6 14.7
2015-Feb-20 04:01N 32°14' W 159°34'122.4 14.7
2015-Feb-20 03:57N 32°14' W 159°36'0 0.1 14.7
2015-Feb-20 02:17N 32°14' W 159°36'3 0.8 14.7
2015-Feb-19 23:11N 32°14' W 159°39'0 0.7 14.7
2015-Feb-19 23:06N 32°14' W 159°39'4 0.8 14.7
2015-Feb-19 17:38N 32°12' W 159°43'1 1.0 14.6
2015-Feb-19 16:46N 32°12' W 159°44'1 3.9 14.6
2015-Feb-19 16:31N 32°11' W 159°44'1 1.1 14.6
2015-Feb-19 16:01N 32°11' W 159°44'1 0.5 14.6
2015-Feb-19 14:58N 32°11' W 159°44'1 4.7 14.6
2015-Feb-19 14:49N 32°10' W 159°45'0 0.0 14.6
2015-Feb-19 13:30N 32°10' W 159°45'1 7.3 14.6
2015-Feb-19 13:22N 32°10' W 159°46'0 0.0 14.6
2015-Feb-19 08:03N 32°10' W 159°46'2 0.6 14.7
2015-Feb-19 04:49N 32°10' W 159°48'2 3.9 14.8
2015-Feb-19 04:19N 32°11' W 159°50'0 0.0 14.8
2015-Feb-19 02:44N 32°11' W 159°50'0 5.1 14.9
2015-Feb-19 02:41N 32°11' W 159°50'0 0.4 14.9
2015-Feb-19 02:30N 32°11' W 159°50'1 0.9 14.9
2015-Feb-19 01:02N 32°11' W 159°52'2 1.0 14.9
2015-Feb-18 23:19N 32°11' W 159°54'2 1.2 14.9
2015-Feb-18 21:42N 32°10' W 159°56'3 0.6 14.9
2015-Feb-18 16:48N 32°09' W 159°59'1 6.8 15.0
2015-Feb-18 16:42N 32°09' W 159°60'1 4.4 15.0
2015-Feb-18 16:33N 32°09' W 159°59'1 0.6 15.0
2015-Feb-18 15:29N 32°09' W 159°60'0 0.9 15.0
2015-Feb-18 15:22N 32°09' W 159°60'0 0.0 15.0
2015-Feb-18 15:08N 32°09' W 159°60'0 0.0 15.0
2015-Feb-18 14:48N 32°09' W 159°60'1 0.6 15.0
2015-Feb-18 13:39N 32°09' W 160°01'0 4.0 15.0
2015-Feb-18 13:33N 32°09' W 160°01'0 0.0 15.0
2015-Feb-18 11:57N 32°09' W 160°01'115.4 15.0
2015-Feb-18 11:54N 32°09' W 160°02'0 0.0 15.0
2015-Feb-18 08:27N 32°09' W 160°02'0 6.1 15.0
2015-Feb-18 08:24N 32°09' W 160°02'0 0.2 15.0
2015-Feb-18 07:38N 32°09' W 160°02'0 0.2 15.0
2015-Feb-18 06:47N 32°09' W 160°03'1 9.6 15.0
2015-Feb-18 06:41N 32°10' W 160°04'1 0.3 15.0
2015-Feb-18 04:47N 32°10' W 160°04'0 1.0 15.0
2015-Feb-18 04:21N 32°10' W 160°04'   15.0
Track history (hours):
 
Tides and Currents Weather Stations Pressure Air Temp Water Temp Dewpoint Dewpoint Depression Visibility Wind Speed Wind Dir Waves Ship Positions

Drifting buoy 51940

Last reported at 2015-Feb-28 04:06 UTC. Time now 2015-Feb-28 06:54 UTC.
Position N 32°42' W 159°25'.

Water temperature 15.2 ° C

Date/timePositionNaut miles runAvg speedWind from/ knotsBaromVisibWave heightAir tempDewpointWater temp
2015-Feb-28 04:06N 32°42' W 159°25'3 0.9 15.2
2015-Feb-28 01:03N 32°45' W 159°25'0 3.0 15.2
2015-Feb-28 00:58N 32°45' W 159°26'2 1.5 15.2
2015-Feb-27 23:18N 32°47' W 159°27'0 0.0 15.2
2015-Feb-27 21:04N 32°47' W 159°27'1 1.0 15.1
2015-Feb-27 20:16N 32°47' W 159°26'0 0.1 15.1
2015-Feb-27 16:47N 32°47' W 159°26'1 5.6 15.1
2015-Feb-27 16:38N 32°46' W 159°25'0 0.1 15.1
2015-Feb-27 15:07N 32°46' W 159°25'1 9.4 15.1
2015-Feb-27 15:01N 32°46' W 159°24'0 0.0 15.1
2015-Feb-27 13:41N 32°46' W 159°24'1 7.6 15.1
2015-Feb-27 13:33N 32°46' W 159°23'0 0.0 15.1
2015-Feb-27 11:58N 32°46' W 159°23'2 0.7 15.1
2015-Feb-27 08:42N 32°47' W 159°21'0 1.5 15.1
2015-Feb-27 08:38N 32°47' W 159°21'0 0.5 15.1
2015-Feb-27 07:52N 32°47' W 159°20'1 0.8 15.1
2015-Feb-27 07:01N 32°48' W 159°19'1 9.3 15.1
2015-Feb-27 06:55N 32°48' W 159°18'0 0.0 15.1
2015-Feb-27 05:36N 32°48' W 159°18'1 0.6 15.2
2015-Feb-27 04:24N 32°48' W 159°18'0 2.7 15.2
2015-Feb-27 04:17N 32°49' W 159°18'1 1.7 15.2
2015-Feb-27 03:57N 32°49' W 159°17'1 0.4 15.2
2015-Feb-27 01:12N 32°48' W 159°16'2 0.5 15.2
2015-Feb-26 20:36N 32°48' W 159°13'2 0.5 15.0
2015-Feb-26 17:18N 32°47' W 159°12'0 0.2 15.0
2015-Feb-26 16:58N 32°47' W 159°12'1 6.1 15.0
2015-Feb-26 16:51N 32°47' W 159°11'0 0.0 15.0
2015-Feb-26 15:40N 32°47' W 159°11'0 0.5 15.0
2015-Feb-26 15:19N 32°47' W 159°11'1 7.0 15.0
2015-Feb-26 15:10N 32°47' W 159°10'1 0.6 15.0
2015-Feb-26 13:45N 32°47' W 159°09'0 0.0 15.0
2015-Feb-26 12:10N 32°47' W 159°09'219.6 15.0
2015-Feb-26 12:05N 32°46' W 159°07'0 0.1 15.0
2015-Feb-26 08:58N 32°46' W 159°07'0 0.3 15.1
2015-Feb-26 08:13N 32°47' W 159°07'0 0.3 15.1
2015-Feb-26 07:18N 32°47' W 159°06'156.4 15.1
2015-Feb-26 07:17N 32°47' W 159°05'1 0.4 15.1
2015-Feb-26 04:51N 32°48' W 159°05'1 2.6 15.1
2015-Feb-26 04:28N 32°47' W 159°06'023.5 15.1
2015-Feb-26 04:27N 32°47' W 159°06'0 0.3 15.1
2015-Feb-26 03:09N 32°47' W 159°06'0 1.4 15.1
2015-Feb-26 02:49N 32°47' W 159°06'1 0.7 15.1
2015-Feb-26 01:22N 32°48' W 159°05'1 3.2 15.1
2015-Feb-26 01:06N 32°47' W 159°05'0 0.0
2015-Feb-25 23:43N 32°47' W 159°05'1 0.6 15.0
2015-Feb-25 21:44N 32°46' W 159°04'0 0.0 15.0
2015-Feb-25 20:57N 32°46' W 159°04'0 2.0 15.0
2015-Feb-25 20:49N 32°46' W 159°04'0 0.0 15.0
2015-Feb-25 20:03N 32°46' W 159°04'1 0.3 15.0
2015-Feb-25 17:46N 32°45' W 159°05'0 0.0 15.0
2015-Feb-25 17:34N 32°45' W 159°05'0 0.0 15.0
2015-Feb-25 16:12N 32°45' W 159°05'0 0.5 15.1
2015-Feb-25 15:57N 32°45' W 159°04'0 1.4 15.1
2015-Feb-25 15:49N 32°45' W 159°04'0 0.0 15.1
2015-Feb-25 15:29N 32°45' W 159°04'1 4.9 15.1
2015-Feb-25 15:22N 32°44' W 159°05'0 0.0 15.1
2015-Feb-25 14:03N 32°44' W 159°05'1 0.4 15.1
2015-Feb-25 12:19N 32°44' W 159°05'120.8 15.1
2015-Feb-25 12:16N 32°43' W 159°04'0 0.0 15.1
2015-Feb-25 09:23N 32°43' W 159°04'0 3.3 15.0
2015-Feb-25 09:14N 32°42' W 159°04'1 0.4 15.0
2015-Feb-25 07:38N 32°42' W 159°05'0 0.1 15.0
2015-Feb-25 05:13N 32°42' W 159°04'0 0.0 15.0
2015-Feb-25 04:59N 32°42' W 159°04'1 4.5 15.0
2015-Feb-25 04:40N 32°41' W 159°06'0 0.0 15.0
2015-Feb-25 03:34N 32°41' W 159°06'0 0.0 15.0
2015-Feb-25 03:01N 32°41' W 159°06'0 0.0 15.0
2015-Feb-25 01:33N 32°41' W 159°06'0 0.0 14.9
2015-Feb-24 23:54N 32°41' W 159°06'1 0.5 15.0
2015-Feb-24 21:16N 32°40' W 159°05'0 0.0 15.0
2015-Feb-24 20:25N 32°40' W 159°05'1 0.4 14.9
2015-Feb-24 17:15N 32°40' W 159°04'0 0.2 14.9
2015-Feb-24 16:21N 32°40' W 159°04'0 0.6 14.9
2015-Feb-24 15:41N 32°40' W 159°03'0 2.0 14.8
2015-Feb-24 15:34N 32°40' W 159°04'0 0.0 14.8
2015-Feb-24 15:32N 32°40' W 159°04'0 0.3 14.8
2015-Feb-24 15:03N 32°40' W 159°04'0 0.2 14.8
2015-Feb-24 14:13N 32°40' W 159°04'0 2.8 14.8
2015-Feb-24 14:07N 32°40' W 159°04'0 0.0 14.8
2015-Feb-24 12:34N 32°40' W 159°04'3 0.6 14.6
2015-Feb-24 08:03N 32°37' W 159°04'0 1.0 14.5
2015-Feb-24 08:00N 32°37' W 159°04'0 0.5 14.5
2015-Feb-24 07:11N 32°37' W 159°04'0 0.0 14.5
2015-Feb-24 06:20N 32°37' W 159°04'1 1.1 14.6
2015-Feb-24 05:30N 32°36' W 159°04'1 0.4 14.6
2015-Feb-24 04:02N 32°35' W 159°04'0 2.6 14.6
2015-Feb-24 03:56N 32°35' W 159°03'0 3.7 14.6
2015-Feb-24 03:51N 32°35' W 159°04'0 0.3 14.6
2015-Feb-24 03:12N 32°35' W 159°04'0 0.3 14.7
2015-Feb-24 02:14N 32°35' W 159°04'0 0.0 14.6
2015-Feb-24 01:44N 32°35' W 159°04'0 1.5 14.7
2015-Feb-24 01:33N 32°35' W 159°04'1 4.6 14.7
2015-Feb-24 01:25N 32°34' W 159°05'0 0.0 14.7
2015-Feb-24 00:08N 32°34' W 159°05'1 6.5 14.7
2015-Feb-24 00:00N 32°34' W 159°06'2 0.7 14.8
2015-Feb-23 20:44N 32°32' W 159°07'0 0.0 14.8
2015-Feb-23 19:54N 32°32' W 159°07'0 0.0 14.8
2015-Feb-23 19:01N 32°32' W 159°07'0 0.0 14.7
2015-Feb-23 17:15N 32°32' W 159°07'0 0.6 14.7
2015-Feb-23 16:46N 32°32' W 159°07'2 1.7 14.7
2015-Feb-23 15:51N 32°31' W 159°09'0 0.0 14.7
2015-Feb-23 15:46N 32°31' W 159°09'0 0.0 14.7
2015-Feb-23 15:43N 32°31' W 159°09'1 6.0 14.7
2015-Feb-23 15:34N 32°32' W 159°08'1 1.6 14.7
2015-Feb-23 15:01N 32°31' W 159°09'0 0.0 14.7
2015-Feb-23 14:24N 32°31' W 159°09'115.1 14.6
2015-Feb-23 14:19N 32°30' W 159°09'0 0.0 14.6
2015-Feb-23 14:03N 32°30' W 159°09'0 0.0 14.6
2015-Feb-23 12:46N 32°30' W 159°09'319.3 14.6
2015-Feb-23 12:37N 32°27' W 159°10'0 0.0 14.6
2015-Feb-23 08:19N 32°27' W 159°10'1 0.9 14.6
2015-Feb-23 07:35N 32°26' W 159°10'1 1.0 14.6
2015-Feb-23 06:44N 32°26' W 159°10'0 0.6 14.6
2015-Feb-23 06:01N 32°25' W 159°10'2 1.0 14.6
2015-Feb-23 04:22N 32°24' W 159°09'0 0.3 14.7
2015-Feb-23 03:26N 32°24' W 159°09'0 0.0 14.7
2015-Feb-23 03:23N 32°24' W 159°09'1 1.3 14.7
2015-Feb-23 02:43N 32°23' W 159°10'1 0.7 14.7
2015-Feb-23 01:42N 32°22' W 159°10'0 0.0 14.7
2015-Feb-23 00:19N 32°22' W 159°10'0 2.4 14.7
2015-Feb-23 00:16N 32°22' W 159°10'2 1.0 14.7
2015-Feb-22 22:35N 32°21' W 159°11'0 0.1 14.7
2015-Feb-22 21:09N 32°21' W 159°11'1 0.7 14.7
2015-Feb-22 20:19N 32°21' W 159°12'2 0.7 14.7
2015-Feb-22 17:46N 32°19' W 159°13'2 0.9 14.7
2015-Feb-22 16:05N 32°18' W 159°12'0 2.3 14.7
2015-Feb-22 15:54N 32°17' W 159°12'0 0.0 14.7
2015-Feb-22 15:31N 32°17' W 159°12'0 0.4 14.7
2015-Feb-22 14:33N 32°17' W 159°12'0 1.4 14.7
2015-Feb-22 14:21N 32°17' W 159°12'1 8.7 14.7
2015-Feb-22 14:16N 32°16' W 159°12'0 0.0 14.7
2015-Feb-22 12:57N 32°16' W 159°12'213.1 14.7
2015-Feb-22 12:49N 32°14' W 159°12'0 0.0 14.7
2015-Feb-22 08:43N 32°14' W 159°12'1 1.3 14.7
2015-Feb-22 07:54N 32°13' W 159°12'0 0.0 14.7
2015-Feb-22 07:03N 32°13' W 159°12'1 0.6 14.8
2015-Feb-22 04:55N 32°12' W 159°13'0 0.0 14.8
2015-Feb-22 04:44N 32°12' W 159°13'0 0.0 14.8
2015-Feb-22 03:34N 32°12' W 159°13'0 1.1 14.8
2015-Feb-22 03:12N 32°12' W 159°13'0 1.2 14.8
2015-Feb-22 03:09N 32°12' W 159°13'0 0.1 14.8
2015-Feb-22 01:54N 32°12' W 159°13'2 1.3 14.8
2015-Feb-22 00:29N 32°10' W 159°14'1 0.2 14.8
2015-Feb-21 19:47N 32°10' W 159°15'1 0.3 14.6
2015-Feb-21 16:37N 32°09' W 159°16'0 0.5 14.6
2015-Feb-21 16:17N 32°09' W 159°16'1 0.3 14.6
2015-Feb-21 13:03N 32°10' W 159°17'1 7.6 14.6
2015-Feb-21 12:59N 32°10' W 159°18'0 0.1 14.6
2015-Feb-21 09:01N 32°10' W 159°18'1 0.4 14.7
2015-Feb-21 05:25N 32°11' W 159°20'1 0.4 14.7
2015-Feb-21 03:49N 32°11' W 159°20'1 0.6 14.7
2015-Feb-21 02:06N 32°11' W 159°21'1 0.4 14.7
2015-Feb-21 00:38N 32°11' W 159°22'1 0.4 14.7
2015-Feb-20 23:00N 32°11' W 159°23'216.2 14.7
2015-Feb-20 22:54N 32°12' W 159°25'0 0.0 14.7
2015-Feb-20 21:48N 32°12' W 159°25'0 0.0 14.6
2015-Feb-20 21:00N 32°12' W 159°25'1 1.2 14.6
2015-Feb-20 20:11N 32°12' W 159°26'2 0.5 14.6
2015-Feb-20 17:08N 32°11' W 159°28'0 0.3 14.6
2015-Feb-20 16:26N 32°11' W 159°28'1 5.1 14.6
2015-Feb-20 16:19N 32°11' W 159°29'3 0.9 14.6
2015-Feb-20 13:09N 32°13' W 159°31'0 0.0 14.6
2015-Feb-20 07:46N 32°13' W 159°31'1 1.7 14.7
2015-Feb-20 06:57N 32°14' W 159°32'2 0.6 14.7
2015-Feb-20 04:01N 32°14' W 159°34'122.4 14.7
2015-Feb-20 03:57N 32°14' W 159°36'0 0.1 14.7
2015-Feb-20 02:17N 32°14' W 159°36'3 0.8 14.7
2015-Feb-19 23:11N 32°14' W 159°39'0 0.7 14.7
2015-Feb-19 23:06N 32°14' W 159°39'4 0.8 14.7
2015-Feb-19 17:38N 32°12' W 159°43'1 1.0 14.6
2015-Feb-19 16:46N 32°12' W 159°44'1 3.9 14.6
2015-Feb-19 16:31N 32°11' W 159°44'1 1.1 14.6
2015-Feb-19 16:01N 32°11' W 159°44'1 0.5 14.6
2015-Feb-19 14:58N 32°11' W 159°44'1 4.7 14.6
2015-Feb-19 14:49N 32°10' W 159°45'0 0.0 14.6
2015-Feb-19 13:30N 32°10' W 159°45'1 7.3 14.6
2015-Feb-19 13:22N 32°10' W 159°46'0 0.0 14.6
2015-Feb-19 08:03N 32°10' W 159°46'2 0.6 14.7
2015-Feb-19 04:49N 32°10' W 159°48'2 3.9 14.8
2015-Feb-19 04:19N 32°11' W 159°50'0 0.0 14.8
2015-Feb-19 02:44N 32°11' W 159°50'0 5.1 14.9
2015-Feb-19 02:41N 32°11' W 159°50'0 0.4 14.9
2015-Feb-19 02:30N 32°11' W 159°50'1 0.9 14.9
2015-Feb-19 01:02N 32°11' W 159°52'2 1.0 14.9
2015-Feb-18 23:19N 32°11' W 159°54'2 1.2 14.9
2015-Feb-18 21:42N 32°10' W 159°56'3 0.6 14.9
2015-Feb-18 16:48N 32°09' W 159°59'1 6.8 15.0
2015-Feb-18 16:42N 32°09' W 159°60'1 4.4 15.0
2015-Feb-18 16:33N 32°09' W 159°59'1 0.6 15.0
2015-Feb-18 15:29N 32°09' W 159°60'0 0.9 15.0
2015-Feb-18 15:22N 32°09' W 159°60'0 0.0 15.0
2015-Feb-18 15:08N 32°09' W 159°60'0 0.0 15.0
2015-Feb-18 14:48N 32°09' W 159°60'1 0.6 15.0
2015-Feb-18 13:39N 32°09' W 160°01'0 4.0 15.0
2015-Feb-18 13:33N 32°09' W 160°01'0 0.0 15.0
2015-Feb-18 11:57N 32°09' W 160°01'115.4 15.0
2015-Feb-18 11:54N 32°09' W 160°02'0 0.0 15.0
2015-Feb-18 08:27N 32°09' W 160°02'0 6.1 15.0
2015-Feb-18 08:24N 32°09' W 160°02'0 0.2 15.0
2015-Feb-18 07:38N 32°09' W 160°02'0 0.2 15.0
2015-Feb-18 06:47N 32°09' W 160°03'1 9.6 15.0
2015-Feb-18 06:41N 32°10' W 160°04'1 0.3 15.0
2015-Feb-18 04:47N 32°10' W 160°04'0 1.0 15.0
2015-Feb-18 04:21N 32°10' W 160°04'   15.0

Dump ship's entire track history